createdAt,value
2022-10-19T00:00:14.185Z,95.22
2022-10-19T00:02:31.131Z,95.54
2022-10-19T00:04:48.240Z,96.06
2022-10-19T00:07:05.569Z,96.95
2022-10-19T00:09:23.506Z,96.71
2022-10-19T00:11:40.600Z,96.70
2022-10-19T00:13:58.477Z,96.78
2022-10-19T00:16:15.568Z,97.04
2022-10-19T00:18:33.965Z,97.38
2022-10-19T00:20:50.805Z,97.26
2022-10-19T00:23:08.177Z,96.03
2022-10-19T00:25:25.838Z,96.33
2022-10-19T00:27:43.120Z,97.42
2022-10-19T00:30:00.443Z,97.02
2022-10-19T00:32:18.534Z,96.80
2022-10-19T00:34:37.221Z,96.76
2022-10-19T00:36:54.441Z,97.05
2022-10-19T00:39:11.783Z,97.83
2022-10-19T00:41:29.077Z,97.03
2022-10-19T00:43:46.055Z,98.30
2022-10-19T00:46:04.303Z,98.01
2022-10-19T00:48:21.263Z,98.35
2022-10-19T00:50:38.289Z,99.11
2022-10-19T00:52:55.269Z,97.84
2022-10-19T00:55:12.228Z,98.75
2022-10-19T00:57:29.240Z,99.05
2022-10-19T00:59:46.355Z,97.65
2022-10-19T01:02:03.339Z,97.85
2022-10-19T01:04:20.284Z,98.64
2022-10-19T01:06:38.301Z,98.56
2022-10-19T01:08:55.476Z,98.13
2022-10-19T01:11:13.760Z,97.65
2022-10-19T01:13:32.026Z,97.62
2022-10-19T01:15:49.317Z,99.27
2022-10-19T01:18:06.422Z,98.70
2022-10-19T01:20:23.655Z,98.55
2022-10-19T01:22:40.968Z,99.00
2022-10-19T01:24:58.267Z,98.86
2022-10-19T01:27:15.557Z,97.90
2022-10-19T01:29:32.756Z,98.78
2022-10-19T01:31:49.990Z,99.03
2022-10-19T01:34:07.104Z,97.77
2022-10-19T01:36:24.113Z,98.96
2022-10-19T01:38:41.433Z,98.26
2022-10-19T01:40:58.763Z,98.84
2022-10-19T01:43:15.791Z,99.21
2022-10-19T01:45:34.033Z,98.54
2022-10-19T01:47:51.083Z,99.01
2022-10-19T01:50:08.011Z,98.50
2022-10-19T01:52:25.312Z,99.11
2022-10-19T01:54:42.314Z,99.90
2022-10-19T01:57:00.183Z,99.55
2022-10-19T01:59:17.451Z,97.94
2022-10-19T02:01:34.696Z,97.97
2022-10-19T02:03:51.740Z,99.61
2022-10-19T02:06:08.760Z,99.88
2022-10-19T02:08:25.994Z,98.18
2022-10-19T02:10:43.239Z,98.18
2022-10-19T02:13:00.107Z,100.00
2022-10-19T02:15:17.168Z,99.66
2022-10-19T02:17:34.138Z,99.48
2022-10-19T02:19:51.058Z,98.51
2022-10-19T02:22:07.912Z,99.04
2022-10-19T02:24:25.108Z,100.00
2022-10-19T02:26:42.117Z,99.33
2022-10-19T02:28:59.010Z,100.00
2022-10-19T02:31:16.106Z,100.00
2022-10-19T02:33:33.340Z,99.98
2022-10-19T02:35:51.250Z,99.14
2022-10-19T02:38:08.281Z,100.00
2022-10-19T02:40:26.251Z,99.36
2022-10-19T02:42:43.182Z,99.19
2022-10-19T02:45:00.231Z,99.24
2022-10-19T02:47:17.555Z,99.35
2022-10-19T02:49:34.880Z,99.57
2022-10-19T02:51:52.208Z,100.00
2022-10-19T02:54:09.445Z,100.00
2022-10-19T02:56:26.512Z,100.00
2022-10-19T02:58:43.454Z,100.00
2022-10-19T03:01:00.454Z,99.01
2022-10-19T03:03:17.525Z,100.00
2022-10-19T03:05:34.599Z,99.66
2022-10-19T03:07:51.460Z,100.00
2022-10-19T03:10:08.443Z,100.00
2022-10-19T03:12:26.710Z,100.00
2022-10-19T03:14:43.970Z,100.00
2022-10-19T03:17:00.930Z,99.17
2022-10-19T03:19:18.050Z,100.00
2022-10-19T03:21:36.002Z,100.00
2022-10-19T03:23:52.986Z,99.37
2022-10-19T03:26:12.180Z,100.00
2022-10-19T03:28:29.810Z,99.52
2022-10-19T03:30:46.841Z,100.00
2022-10-19T03:33:04.388Z,99.53
2022-10-19T03:35:21.325Z,100.00
2022-10-19T03:37:38.357Z,100.00
2022-10-19T03:39:55.348Z,100.00
2022-10-19T03:42:12.411Z,99.41
2022-10-19T03:44:29.346Z,100.00
2022-10-19T03:46:46.219Z,100.00
2022-10-19T03:49:03.277Z,100.00
2022-10-19T03:51:20.563Z,99.64
2022-10-19T03:53:38.238Z,99.83
2022-10-19T03:55:55.196Z,99.90
2022-10-19T03:58:12.325Z,100.00
2022-10-19T04:00:29.607Z,99.83
2022-10-19T04:02:46.833Z,99.77
2022-10-19T04:05:04.185Z,99.69
2022-10-19T04:07:22.209Z,100.00
2022-10-19T04:09:39.178Z,100.00
2022-10-19T04:11:56.543Z,100.00
2022-10-19T04:14:19.300Z,99.67
2022-10-19T04:16:44.113Z,99.40
2022-10-19T04:19:01.468Z,100.00
2022-10-19T04:21:19.646Z,100.00
2022-10-19T04:23:37.614Z,100.00
2022-10-19T04:25:54.617Z,100.00
2022-10-19T04:28:11.620Z,99.86
2022-10-19T04:30:28.832Z,99.85
2022-10-19T04:32:46.113Z,99.88
2022-10-19T04:35:03.429Z,99.52
2022-10-19T04:37:20.677Z,100.00
2022-10-19T04:39:37.705Z,100.00
2022-10-19T04:41:54.686Z,100.00
2022-10-19T04:44:12.078Z,99.86
2022-10-19T04:46:29.173Z,100.00
2022-10-19T04:48:47.191Z,100.00
2022-10-19T04:51:04.512Z,99.62
2022-10-19T04:53:21.582Z,99.87
2022-10-19T04:55:38.778Z,99.54
2022-10-19T04:57:56.113Z,99.61
2022-10-19T05:00:13.998Z,100.00
2022-10-19T05:02:31.082Z,100.00
2022-10-19T05:04:48.066Z,100.00
2022-10-19T05:07:05.160Z,100.00
2022-10-19T05:09:22.472Z,100.00
2022-10-19T05:11:39.791Z,100.00
2022-10-19T05:13:56.843Z,100.00
2022-10-19T05:16:13.978Z,99.30
2022-10-19T05:18:31.224Z,99.56
2022-10-19T05:20:48.556Z,99.55
2022-10-19T05:23:07.348Z,99.95
2022-10-19T05:25:24.534Z,99.25
2022-10-19T05:27:41.800Z,99.21
2022-10-19T05:29:59.049Z,100.00
2022-10-19T05:32:16.308Z,100.00
2022-10-19T05:34:33.500Z,100.00
2022-10-19T05:36:50.493Z,100.00
2022-10-19T05:39:07.364Z,100.00
2022-10-19T05:41:24.339Z,99.89
2022-10-19T05:43:41.577Z,99.78
2022-10-19T05:45:58.562Z,99.78
2022-10-19T05:48:15.838Z,100.00
2022-10-19T05:50:33.129Z,100.00
2022-10-19T05:52:50.067Z,100.00
2022-10-19T05:55:07.014Z,100.00
2022-10-19T05:57:24.029Z,100.00
2022-10-19T05:59:40.955Z,100.00
2022-10-19T06:01:57.885Z,100.00
2022-10-19T06:06:37.967Z,99.91
2022-10-19T06:08:55.148Z,99.55
2022-10-19T06:11:12.059Z,100.00
2022-10-19T06:13:30.382Z,99.29
2022-10-19T06:15:47.281Z,98.64
2022-10-19T06:18:04.213Z,97.97
2022-10-19T06:20:21.114Z,99.95
2022-10-19T06:22:38.249Z,99.05
2022-10-19T06:24:55.447Z,99.77
2022-10-19T06:27:12.374Z,99.19
2022-10-19T06:29:29.345Z,97.88
2022-10-19T06:31:46.312Z,100.00
2022-10-19T06:34:04.590Z,98.65
2022-10-19T06:36:21.551Z,98.37
2022-10-19T06:38:38.628Z,98.16
2022-10-19T06:40:55.530Z,99.87
2022-10-19T06:43:12.486Z,97.89
2022-10-19T06:45:32.257Z,98.19
2022-10-19T06:47:53.048Z,99.88
2022-10-19T06:50:10.081Z,98.40
2022-10-19T06:52:27.316Z,98.46
2022-10-19T06:54:44.389Z,99.29
2022-10-19T06:57:01.736Z,98.32
2022-10-19T06:59:18.677Z,97.23
2022-10-19T07:01:35.998Z,97.01
2022-10-19T07:03:53.047Z,97.76
2022-10-19T07:06:10.147Z,97.64
2022-10-19T07:08:27.077Z,97.53
2022-10-19T07:10:45.187Z,97.80
2022-10-19T07:13:02.102Z,98.30
2022-10-19T07:15:19.188Z,99.05
2022-10-19T07:17:37.162Z,98.91
2022-10-19T07:19:55.476Z,98.03
2022-10-19T07:22:18.611Z,98.74
2022-10-19T07:24:37.352Z,98.25
2022-10-19T07:26:54.590Z,97.74
2022-10-19T07:29:11.607Z,97.48
2022-10-19T07:31:28.611Z,98.20
2022-10-19T07:33:45.872Z,98.43
2022-10-19T07:36:04.339Z,98.70
2022-10-19T07:38:21.595Z,98.50
2022-10-19T07:40:40.025Z,97.92
2022-10-19T07:42:59.817Z,97.36
2022-10-19T07:45:16.807Z,97.82
2022-10-19T07:47:34.085Z,97.66
2022-10-19T07:49:51.437Z,95.94
2022-10-19T07:52:08.698Z,96.84
2022-10-19T07:54:27.055Z,96.63
2022-10-19T07:56:43.977Z,96.48
2022-10-19T07:59:02.190Z,96.12
2022-10-19T08:01:20.057Z,95.43
2022-10-19T08:06:14.268Z,95.25
2022-10-19T08:08:31.356Z,93.97
2022-10-19T08:10:49.339Z,94.27
2022-10-19T08:13:07.599Z,93.39
2022-10-19T08:15:24.616Z,93.53
2022-10-19T08:17:41.629Z,93.62
2022-10-19T08:19:58.663Z,93.83
2022-10-19T08:22:15.848Z,93.78
2022-10-19T08:24:32.938Z,93.68
2022-10-19T08:26:49.978Z,93.10
2022-10-19T08:29:06.965Z,92.74
2022-10-19T08:31:23.982Z,92.21
2022-10-19T08:33:41.253Z,93.20
2022-10-19T08:35:58.250Z,92.95
2022-10-19T08:38:15.144Z,93.27
2022-10-19T08:40:32.416Z,92.93
2022-10-19T08:42:49.446Z,92.65
2022-10-19T08:45:06.472Z,92.74
2022-10-19T08:47:24.299Z,93.93
2022-10-19T08:49:41.378Z,93.47
2022-10-19T08:51:59.556Z,92.27
2022-10-19T08:54:16.850Z,92.11
2022-10-19T08:56:51.383Z,92.57
2022-10-19T08:59:08.860Z,91.27
2022-10-19T09:01:25.855Z,91.04
2022-10-19T09:03:57.982Z,90.65
2022-10-19T09:06:15.773Z,91.06
2022-10-19T09:08:32.720Z,91.06
2022-10-19T09:10:49.991Z,91.25
2022-10-19T09:13:07.066Z,90.83
2022-10-19T09:15:24.093Z,90.15
2022-10-19T09:17:42.433Z,90.24
2022-10-19T09:19:59.568Z,89.94
2022-10-19T09:22:16.804Z,89.47
2022-10-19T09:24:33.775Z,89.54
2022-10-19T09:26:51.081Z,89.79
2022-10-19T09:29:08.077Z,89.31
2022-10-19T09:31:27.110Z,89.53
2022-10-19T09:33:46.194Z,89.53
2022-10-19T09:36:03.134Z,89.09
2022-10-19T09:38:20.069Z,89.73
2022-10-19T09:40:37.003Z,89.50
2022-10-19T09:42:54.004Z,89.50
2022-10-19T09:45:10.941Z,89.49
2022-10-19T09:47:27.942Z,89.26
2022-10-19T09:49:44.960Z,89.66
2022-10-19T09:52:01.889Z,87.77
2022-10-19T09:54:18.863Z,88.34
2022-10-19T09:56:35.893Z,88.13
2022-10-19T09:58:53.102Z,88.66
2022-10-19T10:01:09.964Z,88.77
2022-10-19T10:03:26.930Z,88.22
2022-10-19T10:05:43.914Z,88.59
2022-10-19T10:08:01.203Z,87.83
2022-10-19T10:10:18.437Z,87.73
2022-10-19T10:12:35.699Z,87.66
2022-10-19T10:14:53.325Z,87.36
2022-10-19T10:17:10.256Z,87.03
2022-10-19T10:19:27.365Z,87.09
2022-10-19T10:21:44.634Z,87.37
2022-10-19T10:24:01.650Z,86.85
2022-10-19T10:26:18.921Z,86.49
2022-10-19T10:28:35.829Z,86.15
2022-10-19T10:30:52.770Z,86.40
2022-10-19T10:33:26.419Z,86.45
2022-10-19T10:35:44.160Z,85.98
2022-10-19T10:38:01.084Z,84.68
2022-10-19T10:40:22.598Z,84.36
2022-10-19T10:42:40.668Z,84.55
2022-10-19T10:44:58.611Z,85.01
2022-10-19T10:47:15.598Z,84.70
2022-10-19T10:49:32.945Z,83.85
2022-10-19T10:51:52.881Z,83.22
2022-10-19T10:54:11.312Z,82.93
2022-10-19T10:56:28.526Z,83.94
2022-10-19T10:58:45.551Z,83.93
2022-10-19T11:01:06.645Z,83.43
2022-10-19T11:03:24.876Z,82.17
2022-10-19T11:05:41.899Z,82.98
2022-10-19T11:07:58.839Z,82.13
2022-10-19T11:10:15.881Z,80.96
2022-10-19T11:12:35.137Z,80.83
2022-10-19T11:14:52.646Z,81.92
2022-10-19T11:17:09.585Z,80.88
2022-10-19T11:19:26.926Z,80.29
2022-10-19T11:21:44.961Z,80.06
2022-10-19T11:24:02.290Z,78.19
2022-10-19T11:26:19.497Z,78.67
2022-10-19T11:28:36.514Z,77.99
2022-10-19T11:30:53.713Z,78.33
2022-10-19T11:33:10.668Z,77.27
2022-10-19T11:35:27.721Z,76.73
2022-10-19T11:37:50.271Z,77.87
2022-10-19T11:40:23.117Z,77.63
2022-10-19T11:42:40.001Z,77.94
2022-10-19T11:44:57.207Z,77.18
2022-10-19T11:47:14.125Z,77.81
2022-10-19T11:49:31.157Z,78.19
2022-10-19T11:51:48.299Z,78.80
2022-10-19T11:54:05.521Z,79.02
2022-10-19T11:56:25.233Z,77.87
2022-10-19T11:58:52.702Z,79.21
2022-10-19T12:01:10.021Z,77.83
2022-10-19T12:03:27.055Z,76.60
2022-10-19T12:05:45.017Z,78.64
2022-10-19T12:08:01.930Z,79.02
2022-10-19T12:10:18.851Z,79.21
2022-10-19T12:12:36.415Z,77.73
2022-10-19T12:14:53.681Z,78.10
2022-10-19T12:17:10.713Z,78.51
2022-10-19T12:19:28.025Z,79.79
2022-10-19T12:21:45.055Z,79.45
2022-10-19T12:24:02.044Z,76.47
2022-10-19T12:28:40.934Z,78.58
2022-10-19T12:30:57.868Z,80.29
2022-10-19T12:33:15.864Z,79.52
2022-10-19T12:35:32.804Z,78.61
2022-10-19T12:37:49.791Z,79.87
2022-10-19T12:40:06.865Z,78.66
2022-10-19T12:42:24.118Z,79.79
2022-10-19T12:44:40.986Z,79.63
2022-10-19T12:47:00.852Z,79.02
2022-10-19T12:49:18.374Z,80.71
2022-10-19T12:51:35.386Z,80.83
2022-10-19T12:53:52.719Z,79.38
2022-10-19T12:56:09.739Z,79.20
2022-10-19T12:58:26.607Z,79.85
2022-10-19T13:00:43.951Z,81.54
2022-10-19T13:03:01.043Z,81.28
2022-10-19T13:05:18.539Z,81.92
2022-10-19T13:07:35.744Z,81.92
2022-10-19T13:09:53.253Z,81.68
2022-10-19T13:12:10.548Z,82.96
2022-10-19T13:14:27.773Z,81.95
2022-10-19T13:16:46.068Z,83.35
2022-10-19T13:19:03.402Z,82.64
2022-10-19T13:21:22.772Z,81.68
2022-10-19T13:23:40.087Z,83.40
2022-10-19T13:25:57.185Z,82.63
2022-10-19T13:28:14.671Z,82.64
2022-10-19T13:30:31.574Z,82.66
2022-10-19T13:32:48.631Z,82.72
2022-10-19T13:35:06.873Z,83.48
2022-10-19T13:37:24.174Z,83.70
2022-10-19T13:39:42.168Z,84.49
2022-10-19T13:41:59.147Z,82.90
2022-10-19T13:44:16.868Z,83.63
2022-10-19T13:46:34.131Z,83.26
2022-10-19T13:48:51.468Z,84.27
2022-10-19T13:51:09.757Z,83.95
2022-10-19T13:53:27.990Z,85.07
2022-10-19T13:55:47.340Z,85.09
2022-10-19T13:58:05.482Z,85.20
2022-10-19T14:00:22.803Z,85.51
2022-10-19T14:02:39.781Z,85.01
2022-10-19T14:04:56.971Z,85.32
2022-10-19T14:07:13.956Z,84.95
2022-10-19T14:09:31.268Z,85.83
2022-10-19T14:11:48.303Z,86.37
2022-10-19T14:14:05.634Z,85.90
2022-10-19T14:16:22.718Z,86.02
2022-10-19T14:18:39.990Z,86.38
2022-10-19T14:20:57.356Z,85.57
2022-10-19T14:23:15.698Z,85.48
2022-10-19T14:25:32.757Z,85.83
2022-10-19T14:27:50.630Z,86.17
2022-10-19T14:30:07.912Z,87.10
2022-10-19T14:32:25.219Z,87.36
2022-10-19T14:34:42.312Z,86.99
2022-10-19T14:36:59.573Z,87.46
2022-10-19T14:39:17.600Z,86.79
2022-10-19T14:43:52.083Z,87.25
2022-10-19T14:46:10.349Z,87.23
2022-10-19T14:48:27.351Z,88.22
2022-10-19T14:50:44.263Z,88.15
2022-10-19T14:53:01.171Z,88.00
2022-10-19T14:55:18.430Z,88.20
2022-10-19T14:57:35.566Z,87.98
2022-10-19T14:59:53.416Z,87.57
2022-10-19T15:02:10.383Z,87.94
2022-10-19T15:04:28.008Z,87.77
2022-10-19T15:06:45.926Z,87.59
2022-10-19T15:09:05.404Z,87.90
2022-10-19T15:11:23.734Z,87.70
2022-10-19T15:13:40.999Z,88.35
2022-10-19T15:15:57.994Z,87.93
2022-10-19T15:18:25.336Z,88.16
2022-10-19T15:21:08.248Z,88.10
2022-10-19T15:23:29.743Z,88.17
2022-10-19T15:25:46.873Z,87.90
2022-10-19T15:28:04.187Z,88.17
2022-10-19T15:30:21.255Z,88.59
2022-10-19T15:32:38.864Z,88.77
2022-10-19T15:34:56.425Z,87.98
2022-10-19T15:37:15.740Z,87.75
2022-10-19T15:39:39.798Z,88.15
2022-10-19T15:42:00.455Z,88.21
2022-10-19T15:44:17.490Z,88.56
2022-10-19T15:46:34.531Z,88.93
2022-10-19T15:48:55.235Z,88.77
2022-10-19T15:51:12.620Z,88.74
2022-10-19T15:53:29.525Z,89.16
2022-10-19T15:55:46.479Z,89.30
2022-10-19T15:58:04.476Z,88.86
2022-10-19T16:00:21.757Z,88.77
2022-10-19T16:02:38.738Z,88.61
2022-10-19T16:04:56.088Z,89.22
2022-10-19T16:07:13.117Z,89.42
2022-10-19T16:09:30.338Z,88.84
2022-10-19T16:11:47.682Z,89.17
2022-10-19T16:14:04.763Z,88.91
2022-10-19T16:16:22.112Z,88.86
2022-10-19T16:18:39.216Z,88.57
2022-10-19T16:20:56.153Z,89.06
2022-10-19T16:23:13.368Z,89.40
2022-10-19T16:25:30.495Z,89.63
2022-10-19T16:27:47.843Z,89.11
2022-10-19T16:30:04.790Z,89.17
2022-10-19T16:32:21.812Z,89.47
2022-10-19T16:34:39.077Z,89.60
2022-10-19T16:36:57.063Z,89.53
2022-10-19T16:39:15.285Z,88.88
2022-10-19T16:41:32.604Z,88.98
2022-10-19T16:43:50.947Z,89.11
2022-10-19T16:46:08.152Z,88.57
2022-10-19T16:48:25.161Z,88.49
2022-10-19T16:53:00.608Z,88.55
2022-10-19T16:55:18.845Z,88.84
2022-10-19T16:57:35.823Z,88.99
2022-10-19T17:02:10.689Z,89.59
2022-10-19T17:04:27.960Z,89.36
2022-10-19T17:06:44.914Z,89.17
2022-10-19T17:11:39.108Z,88.87
2022-10-19T17:13:56.142Z,89.49
2022-10-19T17:16:13.085Z,89.57
2022-10-19T17:18:31.329Z,89.50
2022-10-19T17:20:48.264Z,89.53
2022-10-19T17:23:05.512Z,89.09
2022-10-19T17:25:22.721Z,88.96
2022-10-19T17:27:39.997Z,88.80
2022-10-19T17:29:57.343Z,88.44
2022-10-19T17:32:14.656Z,88.49
2022-10-19T17:34:32.100Z,88.48
2022-10-19T17:36:49.720Z,88.10
2022-10-19T17:39:07.664Z,88.66
2022-10-19T17:41:24.999Z,88.87
2022-10-19T17:43:43.290Z,88.08
2022-10-19T17:46:00.577Z,88.32
2022-10-19T17:48:17.618Z,88.92
2022-10-19T17:50:35.713Z,88.05
2022-10-19T17:52:52.799Z,88.27
2022-10-19T17:55:13.114Z,88.70
2022-10-19T17:57:30.889Z,88.67
2022-10-19T17:59:52.840Z,88.69
2022-10-19T18:02:10.182Z,89.39
2022-10-19T18:04:28.092Z,89.37
2022-10-19T18:06:45.429Z,89.58
2022-10-19T18:09:03.520Z,88.67
2022-10-19T18:11:20.854Z,88.95
2022-10-19T18:13:39.083Z,89.67
2022-10-19T18:15:57.126Z,88.58
2022-10-19T18:18:15.360Z,88.35
2022-10-19T18:20:32.678Z,88.57
2022-10-19T18:22:49.993Z,88.27
2022-10-19T18:25:07.034Z,89.23
2022-10-19T18:27:24.122Z,89.18
2022-10-19T18:29:41.098Z,88.53
2022-10-19T18:31:58.147Z,88.36
2022-10-19T18:34:15.468Z,87.32
2022-10-19T18:36:34.725Z,87.63
2022-10-19T18:38:51.781Z,88.63
2022-10-19T18:41:09.128Z,88.03
2022-10-19T18:43:26.473Z,87.76
2022-10-19T18:45:43.770Z,88.35
2022-10-19T18:48:00.913Z,88.65
2022-10-19T18:50:20.688Z,88.55
2022-10-19T18:52:37.749Z,88.39
2022-10-19T18:54:54.659Z,88.20
2022-10-19T18:57:11.620Z,87.40
2022-10-19T18:59:28.641Z,88.16
2022-10-19T19:01:45.952Z,87.81
2022-10-19T19:04:02.987Z,88.30
2022-10-19T19:06:20.293Z,87.36
2022-10-19T19:08:38.457Z,88.54
2022-10-19T19:10:55.835Z,88.77
2022-10-19T19:13:12.764Z,87.52
2022-10-19T19:15:30.035Z,88.99
2022-10-19T19:17:46.979Z,88.45
2022-10-19T19:20:04.090Z,88.14
2022-10-19T19:22:21.377Z,88.23
2022-10-19T19:24:38.420Z,89.00
2022-10-19T19:26:55.768Z,87.29
2022-10-19T19:29:13.489Z,87.88
2022-10-19T19:31:30.772Z,88.65
2022-10-19T19:33:47.808Z,88.80
2022-10-19T19:36:04.860Z,88.28
2022-10-19T19:38:21.842Z,87.50
2022-10-19T19:40:38.778Z,87.19
2022-10-19T19:42:56.041Z,88.93
2022-10-19T19:45:13.957Z,87.17
2022-10-19T19:47:31.192Z,87.48
2022-10-19T19:49:48.275Z,88.97
2022-10-19T19:52:05.274Z,88.77
2022-10-19T19:54:22.612Z,88.38
2022-10-19T19:56:39.651Z,87.15
2022-10-19T19:58:57.634Z,87.85
2022-10-19T20:01:15.005Z,87.45
2022-10-19T20:03:32.164Z,89.36
2022-10-19T20:05:49.205Z,88.92
2022-10-19T20:08:06.456Z,88.87
2022-10-19T20:10:23.578Z,88.07
2022-10-19T20:12:41.459Z,88.36
2022-10-19T20:14:58.754Z,88.36
2022-10-19T20:17:15.718Z,88.92
2022-10-19T20:19:33.027Z,87.50
2022-10-19T20:21:50.054Z,89.29
2022-10-19T20:24:06.991Z,89.27
2022-10-19T20:26:24.177Z,88.14
2022-10-19T20:28:41.298Z,88.81
2022-10-19T20:30:59.347Z,87.99
2022-10-19T20:33:16.643Z,88.19
2022-10-19T20:35:33.978Z,88.02
2022-10-19T20:37:51.074Z,87.95
2022-10-19T20:40:08.900Z,88.36
2022-10-19T20:42:26.125Z,89.56
2022-10-19T20:44:44.030Z,89.23
2022-10-19T20:47:01.113Z,89.07
2022-10-19T20:49:18.144Z,88.98
2022-10-19T20:51:35.168Z,89.34
2022-10-19T20:53:52.371Z,88.24
2022-10-19T20:56:09.616Z,88.22
2022-10-19T20:58:26.907Z,87.71
2022-10-19T21:00:46.280Z,87.99
2022-10-19T21:03:03.917Z,89.04
2022-10-19T21:05:22.072Z,89.45
2022-10-19T21:07:39.369Z,89.56
2022-10-19T21:09:57.233Z,88.19
2022-10-19T21:12:14.273Z,88.29
2022-10-19T21:14:31.665Z,89.27
2022-10-19T21:16:48.953Z,89.40
2022-10-19T21:19:06.258Z,89.64
2022-10-19T21:21:23.326Z,89.02
2022-10-19T21:23:41.670Z,89.13
2022-10-19T21:25:58.712Z,88.14
2022-10-19T21:28:16.938Z,88.96
2022-10-19T21:30:33.894Z,89.31
2022-10-19T21:32:52.171Z,88.04
2022-10-19T21:35:10.552Z,88.11
2022-10-19T21:37:28.642Z,88.62
2022-10-19T21:39:45.912Z,89.41
2022-10-19T21:42:03.977Z,89.55
2022-10-19T21:44:20.995Z,89.20
2022-10-19T21:46:37.979Z,88.65
2022-10-19T21:48:54.911Z,88.37
2022-10-19T21:51:12.313Z,89.68
2022-10-19T21:53:29.230Z,88.57
2022-10-19T21:55:46.472Z,88.87
2022-10-19T21:58:03.420Z,89.11
2022-10-19T22:00:20.790Z,88.10
2022-10-19T22:02:37.743Z,89.92
2022-10-19T22:04:54.663Z,89.59
2022-10-19T22:07:12.973Z,88.31
2022-10-19T22:09:29.968Z,89.03
2022-10-19T22:11:48.355Z,88.50
2022-10-19T22:14:05.353Z,89.57
2022-10-19T22:16:22.660Z,88.81
2022-10-19T22:18:41.060Z,88.86
2022-10-19T22:20:58.116Z,88.20
2022-10-19T22:23:15.035Z,89.10
2022-10-19T22:25:32.020Z,88.76
2022-10-19T22:27:49.097Z,88.91
2022-10-19T22:30:06.664Z,88.21
2022-10-19T22:32:23.916Z,88.55
2022-10-19T22:34:42.220Z,88.51
2022-10-19T22:36:59.272Z,87.82
2022-10-19T22:39:16.251Z,88.54
2022-10-19T22:41:35.726Z,89.06
2022-10-19T22:43:52.739Z,88.16
2022-10-19T22:46:10.059Z,87.76
2022-10-19T22:48:30.307Z,90.00
2022-10-19T22:50:47.356Z,87.96
2022-10-19T22:53:04.394Z,87.83
2022-10-19T22:55:22.742Z,88.28
2022-10-19T22:57:40.156Z,89.68
2022-10-19T22:59:58.743Z,88.38
2022-10-19T23:02:15.768Z,87.81
2022-10-19T23:04:32.922Z,88.43
2022-10-19T23:06:49.977Z,89.71
2022-10-19T23:09:10.355Z,87.44
2022-10-19T23:11:27.446Z,88.79
2022-10-19T23:13:45.898Z,89.90
2022-10-19T23:16:03.307Z,89.46
2022-10-19T23:18:21.721Z,88.69
2022-10-19T23:20:38.723Z,88.47
2022-10-19T23:22:55.968Z,89.60
2022-10-19T23:25:12.987Z,88.34
2022-10-19T23:27:30.429Z,89.87
2022-10-19T23:29:48.741Z,88.86
2022-10-19T23:32:05.689Z,89.20
2022-10-19T23:34:23.109Z,88.32
2022-10-19T23:36:41.317Z,90.13
2022-10-19T23:38:58.738Z,89.46
2022-10-19T23:41:16.164Z,88.58
2022-10-19T23:43:38.835Z,89.80
2022-10-19T23:45:56.056Z,87.93
2022-10-19T23:48:13.160Z,89.95
2022-10-19T23:50:33.752Z,89.27
2022-10-19T23:52:51.137Z,90.10
2022-10-19T23:55:08.220Z,88.06
2022-10-19T23:57:25.225Z,88.30
2022-10-19T23:59:43.537Z,89.78
